Time;durP1;ratioP1;P1;durP2;ratioP2;P2;SDS_P1;SDS_P2;PMS_P1;PMS_P2;Temp;Humidity;BMP_temperature;BMP_pressure;BME280_temperature;BME280_humidity;BME280_pressure;Samples;Min_cycle;Max_cycle;Signal;HPM_P1;HPM_P2
2022/01/09 00:00:39;;;;;;;2.40;2.20;;;2.60;99.90;;;;;;5015372;28;20816;-62
2022/01/09 00:03:08;;;;;;;2.47;2.10;;;2.60;99.90;;;;;;5004887;28;20956;-61
2022/01/09 00:05:35;;;;;;;2.30;2.10;;;2.70;99.90;;;;;;5015925;28;20782;-61
2022/01/09 00:08:02;;;;;;;2.30;1.87;;;2.70;99.90;;;;;;5015972;28;20490;-61
2022/01/09 00:10:31;;;;;;;2.37;1.90;;;2.70;99.90;;;;;;5025185;28;20505;-61
2022/01/09 00:12:58;;;;;;;2.43;1.93;;;2.80;99.90;;;;;;5048597;28;20498;-61
2022/01/09 00:15:25;;;;;;;2.50;2.30;;;2.80;99.90;;;;;;5057645;28;20462;-61
2022/01/09 00:17:52;;;;;;;2.10;1.70;;;2.80;99.90;;;;;;5056769;28;20824;-62
2022/01/09 00:20:24;;;;;;;2.60;2.27;;;2.80;99.90;;;;;;5057244;28;20502;-62
2022/01/09 00:22:52;;;;;;;2.20;1.90;;;2.80;99.90;;;;;;5056478;28;20486;-62
2022/01/09 00:25:22;;;;;;;2.70;2.07;;;2.90;99.90;;;;;;5056442;28;20464;-62
2022/01/09 00:27:51;;;;;;;2.10;1.90;;;2.90;99.90;;;;;;5056803;28;20872;-63
2022/01/09 00:30:20;;;;;;;2.00;1.80;;;2.90;99.90;;;;;;5057101;28;20466;-62
2022/01/09 00:32:47;;;;;;;2.33;2.00;;;2.90;99.90;;;;;;5056640;28;20459;-61
2022/01/09 00:35:15;;;;;;;2.53;2.23;;;3.00;99.90;;;;;;5054153;28;20458;-61
2022/01/09 00:37:43;;;;;;;1.97;1.77;;;3.00;99.90;;;;;;5056293;28;20504;-61
2022/01/09 00:40:12;;;;;;;2.90;2.30;;;3.10;99.90;;;;;;5055356;28;20486;-61
2022/01/09 00:42:40;;;;;;;2.90;2.20;;;3.10;99.90;;;;;;5056156;28;20880;-61
2022/01/09 00:45:08;;;;;;;2.30;2.07;;;3.10;99.90;;;;;;5055797;28;20581;-62
2022/01/09 00:47:35;;;;;;;2.23;2.03;;;3.10;99.90;;;;;;5053475;28;20501;-62
2022/01/09 00:50:06;;;;;;;2.77;2.27;;;3.10;99.90;;;;;;5055544;28;20464;-61
2022/01/09 00:52:33;;;;;;;2.40;2.20;;;3.20;99.90;;;;;;5055454;28;20466;-62
2022/01/09 00:55:04;;;;;;;2.90;2.27;;;3.10;99.90;;;;;;5055621;28;20490;-61
2022/01/09 00:57:32;;;;;;;2.60;2.40;;;3.10;99.90;;;;;;5055238;28;20458;-62
2022/01/09 01:00:00;;;;;;;2.30;2.10;;;3.20;99.90;;;;;;5055615;28;20910;-61
2022/01/09 01:02:27;;;;;;;2.73;2.30;;;3.20;99.90;;;;;;5055282;28;20537;-61
2022/01/09 01:04:56;;;;;;;3.10;2.77;;;3.20;99.90;;;;;;5053079;28;20950;-61
2022/01/09 01:07:24;;;;;;;2.10;1.90;;;3.20;99.90;;;;;;5055558;28;20478;-62
2022/01/09 01:09:51;;;;;;;2.13;1.93;;;3.20;99.90;;;;;;5055552;28;20505;-61
2022/01/09 01:12:19;;;;;;;2.50;2.30;;;3.20;99.90;;;;;;5053444;28;20483;-61
2022/01/09 01:14:49;;;;;;;2.13;1.93;;;3.10;99.90;;;;;;5055119;28;20507;-61
2022/01/09 01:17:16;;;;;;;2.33;1.93;;;3.20;99.90;;;;;;5055113;28;20539;-61
2022/01/09 01:19:50;;;;;;;1.90;1.67;;;3.10;99.90;;;;;;5054904;28;20473;-61
2022/01/09 01:22:18;;;;;;;2.10;1.90;;;3.20;99.90;;;;;;5053272;28;20457;-62
2022/01/09 01:24:46;;;;;;;2.77;2.20;;;3.20;99.90;;;;;;5054181;28;20501;-61
2022/01/09 01:27:14;;;;;;;2.50;1.90;;;3.20;99.90;;;;;;5054660;28;20459;-61
2022/01/09 01:29:42;;;;;;;2.30;2.00;;;3.20;99.90;;;;;;5055075;28;20918;-61
2022/01/09 01:32:12;;;;;;;2.20;1.60;;;3.20;99.90;;;;;;5054628;28;20463;-61
2022/01/09 01:34:39;;;;;;;2.20;1.90;;;3.20;99.90;;;;;;5053563;28;20462;-62
2022/01/09 01:37:06;;;;;;;2.00;1.60;;;3.20;99.90;;;;;;5055094;28;20486;-61
2022/01/09 01:39:33;;;;;;;1.90;1.70;;;3.20;99.90;;;;;;5054694;28;20524;-62
2022/01/09 01:42:00;;;;;;;2.00;1.80;;;3.20;99.90;;;;;;5054508;28;20454;-62
2022/01/09 01:44:39;;;;;;;2.93;2.00;;;3.30;99.90;;;;;;5054320;28;20555;-61
2022/01/09 01:47:08;;;;;;;2.20;2.00;;;3.20;99.90;;;;;;5054123;28;20474;-61
2022/01/09 01:49:35;;;;;;;1.70;1.50;;;3.30;99.90;;;;;;5056779;28;20818;-61
2022/01/09 01:52:02;;;;;;;2.00;1.70;;;3.20;99.90;;;;;;5057237;28;20962;-62
2022/01/09 01:54:29;;;;;;;1.90;1.63;;;3.30;99.90;;;;;;5056660;28;20458;-62
2022/01/09 01:56:56;;;;;;;2.03;1.70;;;3.30;99.90;;;;;;5056081;28;20458;-62
2022/01/09 01:59:23;;;;;;;2.10;1.90;;;3.30;99.90;;;;;;5059120;28;20505;-62
2022/01/09 02:01:50;;;;;;;2.30;2.10;;;3.20;99.90;;;;;;5061021;28;20809;-62
2022/01/09 02:04:18;;;;;;;2.10;1.80;;;3.30;99.90;;;;;;5060089;28;20478;-61
2022/01/09 02:06:45;;;;;;;1.67;1.57;;;3.30;99.90;;;;;;5059191;28;20840;-61
2022/01/09 02:09:13;;;;;;;2.43;2.00;;;3.30;99.90;;;;;;5058691;28;20465;-61
2022/01/09 02:11:40;;;;;;;2.30;2.07;;;3.30;99.90;;;;;;5059351;28;20482;-61
2022/01/09 02:14:07;;;;;;;1.60;1.40;;;3.30;99.90;;;;;;5066280;28;20899;-61
2022/01/09 02:16:35;;;;;;;1.87;1.67;;;3.30;99.90;;;;;;5058505;28;20520;-61
2022/01/09 02:19:04;;;;;;;1.90;1.60;;;3.40;99.90;;;;;;5059857;28;20454;-61
2022/01/09 02:21:33;;;;;;;1.97;1.77;;;3.40;99.90;;;;;;5057524;28;20556;-61
2022/01/09 02:24:03;;;;;;;2.00;1.80;;;3.40;99.90;;;;;;5059887;28;20493;-61
2022/01/09 02:26:30;;;;;;;2.00;1.80;;;3.40;99.90;;;;;;5057767;28;20433;-61
2022/01/09 02:28:57;;;;;;;2.00;1.67;;;3.30;99.90;;;;;;5059877;28;20912;-61
2022/01/09 02:31:24;;;;;;;2.37;2.17;;;3.40;99.90;;;;;;5060275;28;20903;-61
2022/01/09 02:33:51;;;;;;;1.97;1.77;;;3.40;99.90;;;;;;5059328;28;20466;-61
2022/01/09 02:36:18;;;;;;;2.33;1.87;;;3.40;99.90;;;;;;5061116;28;20556;-61
2022/01/09 02:38:48;;;;;;;1.90;1.60;;;3.40;99.90;;;;;;5060628;28;20515;-61
2022/01/09 02:41:15;;;;;;;2.47;2.10;;;3.50;99.90;;;;;;5060490;28;20891;-61
2022/01/09 02:43:42;;;;;;;2.43;2.23;;;3.50;99.90;;;;;;5059957;28;20466;-61
2022/01/09 02:46:15;;;;;;;3.00;1.70;;;3.50;99.90;;;;;;5060113;28;20470;-61
2022/01/09 02:48:43;;;;;;;2.20;2.00;;;3.50;99.90;;;;;;5060628;28;20553;-61
2022/01/09 02:51:13;;;;;;;1.80;1.50;;;3.60;99.90;;;;;;5060688;28;20907;-61
2022/01/09 02:53:48;;;;;;;2.40;2.20;;;3.60;99.90;;;;;;5059143;28;20470;-61
2022/01/09 02:56:17;;;;;;;2.90;2.60;;;3.60;99.90;;;;;;5060121;28;20531;-61
2022/01/09 02:58:44;;;;;;;2.80;2.53;;;3.70;99.90;;;;;;5059507;28;20485;-61
2022/01/09 03:01:12;;;;;;;2.40;2.20;;;3.80;99.90;;;;;;5060132;28;20822;-62
2022/01/09 03:03:41;;;;;;;2.97;2.53;;;3.80;99.90;;;;;;5060269;28;20505;-62
2022/01/09 03:06:09;;;;;;;2.67;2.47;;;3.90;99.90;;;;;;5059485;28;20559;-62
2022/01/09 03:08:37;;;;;;;2.53;2.33;;;3.80;99.90;;;;;;5059791;28;20898;-62
2022/01/09 03:11:06;;;;;;;2.30;1.93;;;3.80;99.90;;;;;;5054800;28;20463;-62
2022/01/09 03:13:33;;;;;;;2.43;2.10;;;3.70;99.90;;;;;;5061495;28;20489;-62
2022/01/09 03:16:00;;;;;;;2.20;1.97;;;3.70;99.90;;;;;;5061544;28;20468;-61
2022/01/09 03:18:27;;;;;;;2.67;2.40;;;3.60;99.90;;;;;;5059666;28;20506;-61
2022/01/09 03:20:54;;;;;;;2.60;2.30;;;3.60;99.90;;;;;;5059864;28;20555;-62
2022/01/09 03:23:21;;;;;;;2.60;2.20;;;3.60;99.90;;;;;;5039937;28;20825;-62
2022/01/09 03:25:48;;;;;;;2.20;2.00;;;3.50;99.90;;;;;;5043109;28;20760;-62
2022/01/09 03:28:16;;;;;;;2.03;1.83;;;3.50;99.90;;;;;;5059762;28;20961;-62
2022/01/09 03:30:45;;;;;;;2.23;2.03;;;3.50;99.90;;;;;;5058288;28;20853;-62
2022/01/09 03:33:13;;;;;;;2.93;2.40;;;3.40;99.90;;;;;;5051895;28;20478;-63
2022/01/09 03:35:43;;;;;;;3.03;2.73;;;3.50;99.90;;;;;;5055003;28;20462;-63
2022/01/09 03:38:12;;;;;;;3.37;2.97;;;3.60;99.90;;;;;;5055163;28;20458;-63
2022/01/09 03:40:39;;;;;;;4.17;2.37;;;3.60;99.90;;;;;;5058623;28;20458;-63
2022/01/09 03:43:07;;;;;;;3.70;2.53;;;3.60;99.90;;;;;;5058327;28;20454;-62
2022/01/09 03:45:35;;;;;;;3.50;2.50;;;3.60;99.90;;;;;;5058553;28;20935;-62
2022/01/09 03:48:02;;;;;;;3.20;2.90;;;3.60;99.90;;;;;;5057620;28;20549;-60
2022/01/09 03:50:29;;;;;;;3.07;2.60;;;3.60;99.90;;;;;;5058148;28;20454;-60
2022/01/09 03:52:56;;;;;;;3.03;2.73;;;3.60;99.90;;;;;;5057731;28;20875;-61
2022/01/09 03:55:25;;;;;;;5.43;2.70;;;3.60;99.90;;;;;;5058468;28;20807;-61
2022/01/09 03:57:52;;;;;;;3.03;2.20;;;3.50;99.90;;;;;;5055187;28;20536;-61
2022/01/09 04:00:24;;;;;;;3.63;2.80;;;3.60;99.90;;;;;;5057753;28;20557;-62
2022/01/09 04:02:55;;;;;;;3.60;2.50;;;3.50;99.90;;;;;;5058043;28;20482;-61
2022/01/09 04:05:22;;;;;;;4.67;2.60;;;3.60;99.90;;;;;;5058232;28;20513;-61
2022/01/09 04:07:50;;;;;;;4.10;2.33;;;3.60;99.90;;;;;;5057195;28;20814;-61
2022/01/09 04:10:19;;;;;;;4.90;3.10;;;3.60;99.90;;;;;;5057663;28;20915;-61
2022/01/09 04:12:51;;;;;;;4.00;2.50;;;3.60;99.90;;;;;;5056397;28;20996;-61
2022/01/09 04:15:22;;;;;;;3.93;2.30;;;3.70;99.90;;;;;;5054650;28;20541;-61
2022/01/09 04:17:51;;;;;;;5.43;3.10;;;3.60;99.90;;;;;;5054615;28;20890;-62
2022/01/09 04:20:21;;;;;;;7.17;2.80;;;3.70;99.90;;;;;;5054915;28;20485;-61
2022/01/09 04:22:51;;;;;;;4.60;3.30;;;3.70;99.90;;;;;;5053376;28;20466;-62
2022/01/09 04:25:19;;;;;;;8.33;3.37;;;3.80;99.90;;;;;;5055222;28;20500;-61
2022/01/09 04:27:47;;;;;;;7.33;4.47;;;3.90;99.90;;;;;;5057488;28;20504;-61
2022/01/09 04:30:14;;;;;;;12.83;4.27;;;3.90;99.90;;;;;;5057127;28;20497;-59
2022/01/09 04:32:42;;;;;;;7.87;4.23;;;3.90;99.90;;;;;;5057484;28;20469;-61
2022/01/09 04:35:09;;;;;;;11.20;5.47;;;4.00;99.90;;;;;;5057499;28;20773;-61
2022/01/09 04:37:39;;;;;;;19.37;7.67;;;4.10;99.90;;;;;;5054323;28;20508;-62
2022/01/09 04:40:10;;;;;;;15.63;5.40;;;4.10;99.90;;;;;;5052502;28;20461;-62
2022/01/09 04:42:41;;;;;;;14.30;5.17;;;4.20;99.90;;;;;;5057440;28;20826;-62
2022/01/09 04:45:10;;;;;;;18.00;5.17;;;4.20;99.90;;;;;;5055036;28;20490;-62
2022/01/09 04:47:42;;;;;;;12.07;5.97;;;4.30;99.90;;;;;;5057441;28;20463;-61
2022/01/09 04:50:12;;;;;;;22.13;6.80;;;4.30;99.90;;;;;;5054596;28;20454;-60
2022/01/09 04:52:43;;;;;;;19.93;6.30;;;4.40;99.90;;;;;;5056325;28;20496;-58
2022/01/09 04:55:11;;;;;;;13.53;5.00;;;4.40;99.90;;;;;;5056975;28;20577;-61
2022/01/09 04:57:38;;;;;;;15.17;4.40;;;4.40;99.90;;;;;;5056657;28;20446;-59
2022/01/09 05:00:09;;;;;;;18.73;6.13;;;4.50;99.90;;;;;;5056641;28;20492;-61
2022/01/09 05:02:36;;;;;;;18.43;6.37;;;4.50;99.90;;;;;;5056913;28;20516;-61
2022/01/09 05:05:04;;;;;;;17.67;6.17;;;4.50;99.90;;;;;;5056961;28;20961;-61
2022/01/09 05:07:31;;;;;;;18.30;6.40;;;4.60;99.90;;;;;;5056506;28;20802;-61
2022/01/09 05:10:00;;;;;;;14.50;4.57;;;4.60;99.90;;;;;;5054078;28;20758;-59
2022/01/09 05:12:27;;;;;;;14.77;5.23;;;4.60;99.90;;;;;;5054036;28;20819;-60
2022/01/09 05:14:54;;;;;;;12.53;5.50;;;4.60;99.90;;;;;;5056240;28;20508;-61
2022/01/09 05:17:21;;;;;;;11.27;4.80;;;4.60;99.90;;;;;;5056888;28;20451;-62
2022/01/09 05:19:51;;;;;;;7.90;4.00;;;4.60;99.90;;;;;;5056849;28;20579;-61
2022/01/09 05:22:19;;;;;;;16.77;5.10;;;4.50;99.90;;;;;;5052520;28;20466;-61
2022/01/09 05:24:46;;;;;;;10.80;3.83;;;4.50;99.90;;;;;;5056503;28;20462;-60
2022/01/09 05:27:18;;;;;;;8.00;3.70;;;4.50;99.90;;;;;;5056662;28;20455;-60
2022/01/09 05:29:45;;;;;;;7.00;4.03;;;4.40;99.90;;;;;;5056030;28;20512;-62
2022/01/09 05:32:12;;;;;;;3.90;3.50;;;4.40;99.90;;;;;;5056054;28;20482;-59
2022/01/09 05:34:39;;;;;;;7.33;4.07;;;4.30;99.90;;;;;;5053314;28;20796;-58
2022/01/09 05:37:06;;;;;;;7.20;3.77;;;4.20;99.90;;;;;;5056733;28;20450;-62
2022/01/09 05:39:33;;;;;;;7.20;4.60;;;4.20;99.90;;;;;;5055700;28;20492;-61
2022/01/09 05:42:01;;;;;;;10.60;5.90;;;4.20;99.90;;;;;;5055601;28;20512;-59
2022/01/09 05:44:29;;;;;;;14.53;8.80;;;4.20;99.90;;;;;;5053546;28;20467;-60
2022/01/09 05:46:56;;;;;;;16.97;8.63;;;4.30;99.90;;;;;;5053438;28;20938;-62
2022/01/09 05:49:23;;;;;;;19.17;9.60;;;4.30;99.90;;;;;;5056515;28;20918;-60
2022/01/09 05:51:50;;;;;;;20.23;10.10;;;4.40;99.90;;;;;;5055907;28;20876;-61
2022/01/09 05:54:17;;;;;;;18.50;9.80;;;4.40;99.90;;;;;;5052330;28;20470;-62
2022/01/09 05:56:44;;;;;;;30.93;11.03;;;4.40;99.90;;;;;;5051486;28;20454;-62
2022/01/09 05:59:12;;;;;;;23.33;9.63;;;4.50;99.90;;;;;;5043444;28;20757;-62
2022/01/09 06:01:40;;;;;;;29.60;10.47;;;4.40;99.90;;;;;;5046118;28;20804;-60
2022/01/09 06:04:07;;;;;;;26.00;10.20;;;4.50;99.90;;;;;;5055346;28;20462;-60
2022/01/09 06:06:34;;;;;;;25.17;9.60;;;4.50;99.90;;;;;;5052772;28;20523;-62
2022/01/09 06:09:04;;;;;;;22.57;10.10;;;4.50;99.90;;;;;;5055890;28;20455;-61
2022/01/09 06:11:31;;;;;;;18.97;8.10;;;4.50;99.90;;;;;;5055358;28;20812;-62
2022/01/09 06:13:59;;;;;;;29.17;10.30;;;4.50;99.90;;;;;;5055831;28;20788;-61
2022/01/09 06:16:26;;;;;;;27.23;7.50;;;4.50;99.90;;;;;;5051524;28;20462;-61
2022/01/09 06:18:54;;;;;;;22.97;8.90;;;4.50;99.90;;;;;;5055198;28;20895;-62
2022/01/09 06:21:21;;;;;;;26.20;8.37;;;4.50;99.90;;;;;;5055420;28;20466;-62
2022/01/09 06:23:48;;;;;;;20.17;9.20;;;4.50;99.90;;;;;;5055329;28;20508;-62
2022/01/09 06:26:17;;;;;;;24.50;8.13;;;4.50;99.90;;;;;;5055461;28;20464;-62
2022/01/09 06:28:50;;;;;;;23.97;8.30;;;4.40;99.90;;;;;;5056284;28;20498;-61
2022/01/09 06:31:17;;;;;;;20.77;7.40;;;4.40;99.90;;;;;;5053573;28;20446;-62
2022/01/09 06:33:44;;;;;;;21.53;8.27;;;4.40;99.90;;;;;;5055401;28;20469;-62
2022/01/09 06:36:13;;;;;;;17.20;8.07;;;4.40;99.90;;;;;;5055506;28;20421;-62
2022/01/09 06:38:43;;;;;;;22.63;8.20;;;4.40;99.90;;;;;;5056081;28;20450;-61
2022/01/09 06:41:10;;;;;;;22.67;7.40;;;4.50;99.90;;;;;;5056351;28;20875;-62
2022/01/09 06:43:37;;;;;;;22.10;7.70;;;4.40;99.90;;;;;;5055563;28;20454;-61
2022/01/09 06:46:04;;;;;;;21.30;7.20;;;4.40;99.90;;;;;;5058049;28;20525;-62
2022/01/09 06:48:31;;;;;;;18.83;6.70;;;4.40;99.90;;;;;;5059194;28;20454;-61
2022/01/09 06:50:58;;;;;;;20.60;6.50;;;4.30;99.90;;;;;;5058950;28;20484;-61
2022/01/09 06:53:26;;;;;;;21.47;8.10;;;4.40;99.90;;;;;;5058950;28;20450;-62
2022/01/09 06:55:55;;;;;;;18.33;6.47;;;4.30;99.90;;;;;;5058835;28;21183;-62
2022/01/09 06:58:22;;;;;;;16.07;6.50;;;4.30;99.90;;;;;;5059406;28;20458;-62
2022/01/09 07:00:50;;;;;;;20.80;6.90;;;4.30;99.90;;;;;;5059446;28;20454;-63
2022/01/09 07:03:17;;;;;;;21.70;8.53;;;4.30;99.90;;;;;;5056125;28;20451;-62
2022/01/09 07:05:44;;;;;;;18.47;6.20;;;4.30;99.90;;;;;;5058524;28;20489;-62
2022/01/09 07:08:11;;;;;;;23.53;6.63;;;4.30;99.90;;;;;;5056863;28;20458;-61
2022/01/09 07:10:39;;;;;;;11.77;6.43;;;4.30;99.90;;;;;;5056773;28;20458;-62
2022/01/09 07:13:06;;;;;;;18.60;6.30;;;4.30;99.90;;;;;;5057433;28;20517;-62
2022/01/09 07:15:34;;;;;;;15.33;6.10;;;4.30;99.90;;;;;;5058367;28;20511;-62
2022/01/09 07:18:01;;;;;;;18.37;7.10;;;4.20;99.90;;;;;;5059120;28;20474;-62
2022/01/09 07:20:28;;;;;;;17.03;5.97;;;4.30;99.90;;;;;;5058206;28;20470;-62
2022/01/09 07:22:58;;;;;;;21.13;5.73;;;4.20;99.90;;;;;;5055633;28;20568;-63
2022/01/09 07:25:24;;;;;;;13.73;6.50;;;4.20;99.90;;;;;;5059079;28;20454;-62
2022/01/09 07:27:53;;;;;;;16.27;5.40;;;4.20;99.90;;;;;;5057963;28;20512;-63
2022/01/09 07:30:20;;;;;;;13.73;6.13;;;4.20;99.90;;;;;;5058721;28;20920;-62
2022/01/09 07:32:47;;;;;;;16.50;6.03;;;4.20;99.90;;;;;;5058969;28;20488;-62
2022/01/09 07:35:14;;;;;;;11.87;5.97;;;4.20;99.90;;;;;;5058789;28;20512;-63
2022/01/09 07:37:41;;;;;;;17.90;6.03;;;4.20;99.90;;;;;;5057727;28;20724;-62
2022/01/09 07:40:09;;;;;;;21.30;7.70;;;4.20;99.90;;;;;;5054397;28;20462;-62
2022/01/09 07:42:36;;;;;;;21.80;6.70;;;4.20;99.90;;;;;;5057109;28;20458;-63
2022/01/09 07:45:06;;;;;;;21.47;6.83;;;4.20;99.90;;;;;;5056181;28;20466;-62
2022/01/09 07:47:34;;;;;;;11.77;5.70;;;4.20;99.90;;;;;;5054603;28;20490;-62
2022/01/09 07:50:01;;;;;;;17.33;5.70;;;4.20;99.90;;;;;;5055149;28;20871;-62
2022/01/09 07:52:28;;;;;;;13.13;5.43;;;4.20;99.90;;;;;;5057336;28;20470;-63
2022/01/09 07:54:55;;;;;;;20.07;7.00;;;4.20;99.90;;;;;;5055738;28;20536;-61
2022/01/09 07:57:22;;;;;;;13.50;5.00;;;4.10;99.90;;;;;;5056922;28;20512;-62
2022/01/09 07:59:49;;;;;;;13.37;5.07;;;4.10;99.90;;;;;;5058142;28;20696;-63
2022/01/09 08:02:17;;;;;;;9.87;4.30;;;4.20;99.90;;;;;;5055056;28;20458;-62
2022/01/09 08:04:44;;;;;;;15.57;5.07;;;4.10;99.90;;;;;;5058090;28;20461;-63
2022/01/09 08:07:11;;;;;;;13.60;6.13;;;4.20;99.90;;;;;;5057545;28;20482;-63
2022/01/09 08:09:39;;;;;;;13.93;5.73;;;4.20;99.90;;;;;;5057313;28;20424;-62
2022/01/09 08:12:10;;;;;;;10.23;4.90;;;4.10;99.90;;;;;;5056989;28;20486;-62
2022/01/09 08:14:37;;;;;;;9.90;5.23;;;4.10;99.90;;;;;;5055473;28;20462;-61
2022/01/09 08:17:05;;;;;;;12.97;4.50;;;4.10;99.90;;;;;;5057941;28;20451;-62
2022/01/09 08:19:35;;;;;;;16.43;7.33;;;4.10;99.90;;;;;;5056847;28;20454;-62
2022/01/09 08:22:06;;;;;;;15.07;5.50;;;4.20;99.90;;;;;;5056677;28;20520;-62
2022/01/09 08:24:33;;;;;;;10.70;5.00;;;4.20;99.90;;;;;;5057570;28;20484;-63
2022/01/09 08:27:01;;;;;;;14.73;5.80;;;4.20;99.90;;;;;;5057988;28;20478;-62
2022/01/09 08:29:28;;;;;;;11.77;5.33;;;4.20;99.90;;;;;;5057239;28;20466;-62
2022/01/09 08:31:55;;;;;;;16.93;6.17;;;4.20;99.90;;;;;;5054331;28;20454;-62
2022/01/09 08:34:22;;;;;;;12.03;5.87;;;4.20;99.90;;;;;;5057135;28;20506;-62
2022/01/09 08:36:51;;;;;;;13.67;5.87;;;4.20;99.90;;;;;;5054450;28;20465;-62
2022/01/09 08:39:19;;;;;;;15.37;5.80;;;4.10;99.90;;;;;;5051518;28;20458;-62
2022/01/09 08:41:46;;;;;;;15.07;5.70;;;4.20;99.90;;;;;;5057106;28;20520;-62
2022/01/09 08:44:12;;;;;;;16.60;5.57;;;4.20;99.90;;;;;;5055884;28;20982;-63
2022/01/09 08:46:40;;;;;;;16.03;5.30;;;4.20;99.90;;;;;;5056287;28;20575;-61
2022/01/09 08:49:07;;;;;;;15.20;6.00;;;4.20;99.90;;;;;;5057171;28;20462;-63
2022/01/09 08:51:35;;;;;;;18.93;5.40;;;4.20;99.90;;;;;;5055870;28;20466;-62
2022/01/09 08:54:08;;;;;;;12.80;6.03;;;4.20;99.90;;;;;;5056921;28;20553;-62
2022/01/09 08:56:38;;;;;;;14.03;5.70;;;4.20;99.90;;;;;;5055970;28;20459;-63
2022/01/09 08:59:05;;;;;;;26.23;6.40;;;4.30;99.90;;;;;;5055608;28;20478;-62
2022/01/09 09:01:32;;;;;;;13.63;6.10;;;4.30;99.90;;;;;;5055610;28;20509;-63
2022/01/09 09:03:59;;;;;;;17.17;6.33;;;4.30;99.90;;;;;;5056509;28;20478;-62
2022/01/09 09:06:26;;;;;;;17.47;5.40;;;4.30;99.90;;;;;;5056399;28;20547;-62
2022/01/09 09:08:53;;;;;;;11.40;5.07;;;4.30;99.90;;;;;;5056983;28;20470;-63
2022/01/09 09:11:22;;;;;;;15.07;6.00;;;4.30;99.90;;;;;;5053831;28;20781;-63
2022/01/09 09:13:52;;;;;;;10.50;5.53;;;4.30;99.90;;;;;;5057169;28;20458;-62
2022/01/09 09:16:24;;;;;;;15.47;5.47;;;4.30;99.90;;;;;;5056985;28;20473;-63
2022/01/09 09:18:52;;;;;;;15.97;5.87;;;4.30;99.90;;;;;;5055356;28;20458;-63
2022/01/09 09:21:19;;;;;;;9.97;4.80;;;4.30;99.90;;;;;;5055341;28;20466;-63
2022/01/09 09:23:46;;;;;;;16.40;5.03;;;4.30;99.90;;;;;;5053956;28;20861;-63
2022/01/09 09:26:14;;;;;;;16.00;4.63;;;4.30;99.90;;;;;;5053701;28;20538;-63
2022/01/09 09:28:42;;;;;;;12.10;4.20;;;4.30;99.90;;;;;;5055472;28;20738;-62
2022/01/09 09:31:10;;;;;;;14.10;5.00;;;4.30;99.90;;;;;;5055320;28;20512;-62
2022/01/09 09:33:37;;;;;;;12.73;4.70;;;4.30;99.90;;;;;;5055217;28;20470;-63
2022/01/09 09:36:06;;;;;;;8.60;4.60;;;4.20;99.90;;;;;;5055401;28;20467;-63
2022/01/09 09:38:34;;;;;;;10.00;3.90;;;4.30;99.90;;;;;;5052418;28;20864;-63
2022/01/09 09:41:01;;;;;;;15.47;5.00;;;4.40;99.90;;;;;;5055226;28;20494;-63
2022/01/09 09:43:30;;;;;;;9.90;4.10;;;4.40;99.90;;;;;;5054448;28;20470;-62
2022/01/09 09:45:58;;;;;;;9.93;4.20;;;4.30;99.90;;;;;;5054660;28;20765;-63
2022/01/09 09:48:25;;;;;;;13.80;4.00;;;4.40;99.90;;;;;;5054496;28;20896;-63
2022/01/09 09:50:52;;;;;;;11.03;4.60;;;4.40;99.90;;;;;;5054486;28;20766;-63
2022/01/09 09:53:19;;;;;;;12.90;5.57;;;4.40;99.90;;;;;;5053053;28;20470;-63
2022/01/09 09:55:51;;;;;;;11.57;5.80;;;4.40;99.90;;;;;;5054480;28;20885;-63
2022/01/09 09:58:18;;;;;;;14.73;5.80;;;4.30;99.90;;;;;;5052513;28;20459;-63
2022/01/09 10:00:52;;;;;;;11.73;5.50;;;4.40;99.90;;;;;;5053504;28;20536;-63
2022/01/09 10:03:29;;;;;;;9.43;5.90;;;4.40;99.90;;;;;;5052241;28;20589;-63
2022/01/09 10:06:00;;;;;;;16.83;7.07;;;4.40;99.90;;;;;;5052570;28;20866;-63
2022/01/09 10:08:36;;;;;;;13.17;7.10;;;4.40;99.90;;;;;;5054870;28;20466;-63
2022/01/09 10:11:14;;;;;;;13.43;5.53;;;4.30;99.90;;;;;;5053503;28;20462;-63
2022/01/09 10:13:41;;;;;;;18.60;7.97;;;4.40;99.90;;;;;;5053928;28;20556;-63
2022/01/09 10:16:10;;;;;;;10.57;6.10;;;4.30;99.90;;;;;;5055017;28;20505;-63
2022/01/09 10:18:43;;;;;;;17.10;6.73;;;4.30;99.90;;;;;;5055485;28;21041;-63
2022/01/09 10:21:14;;;;;;;10.23;5.50;;;4.30;99.90;;;;;;5058914;28;20458;-63
2022/01/09 10:23:59;;;;;;;14.40;6.30;;;4.30;99.90;;;;;;5059634;28;20824;-63
2022/01/09 10:26:27;;;;;;;14.33;6.27;;;4.30;99.90;;;;;;5059924;28;20458;-63
2022/01/09 10:28:54;;;;;;;16.93;6.90;;;4.20;99.90;;;;;;5059105;28;20488;-61
2022/01/09 10:31:21;;;;;;;16.27;7.23;;;4.20;99.90;;;;;;5058528;28;20820;-63
2022/01/09 10:34:03;;;;;;;11.40;6.47;;;4.30;99.90;;;;;;5059114;28;20513;-63
2022/01/09 10:36:36;;;;;;;22.77;7.30;;;4.30;99.90;;;;;;5057558;28;20488;-63
2022/01/09 10:39:09;;;;;;;11.20;5.60;;;4.30;99.90;;;;;;5056031;28;20830;-63
2022/01/09 10:41:57;;;;;;;12.60;5.80;;;4.30;99.90;;;;;;5058762;28;20784;-63
2022/01/09 10:44:30;;;;;;;21.30;7.33;;;4.30;99.90;;;;;;5060518;28;20899;-63
2022/01/09 10:46:59;;;;;;;13.30;6.03;;;4.40;99.90;;;;;;5060151;28;20490;-63
2022/01/09 10:49:36;;;;;;;15.37;7.03;;;4.40;99.90;;;;;;5060023;28;20466;-62
2022/01/09 10:52:17;;;;;;;17.43;7.10;;;4.40;99.90;;;;;;5058997;28;20475;-63
2022/01/09 10:54:46;;;;;;;13.23;6.40;;;4.40;99.90;;;;;;5059059;28;20466;-62
2022/01/09 10:57:15;;;;;;;16.47;5.30;;;4.40;99.90;;;;;;5060262;28;20515;-62
2022/01/09 10:59:42;;;;;;;13.70;6.43;;;4.50;99.90;;;;;;5060138;28;20884;-62
2022/01/09 11:02:12;;;;;;;10.33;6.60;;;4.50;99.90;;;;;;5059055;28;20528;-62
2022/01/09 11:04:42;;;;;;;8.23;6.47;;;4.60;99.90;;;;;;5059688;28;20516;-63
2022/01/09 11:07:12;;;;;;;14.73;6.87;;;4.60;99.90;;;;;;5059339;28;20533;-63
2022/01/09 11:09:44;;;;;;;10.30;6.00;;;4.60;99.90;;;;;;5057447;28;20469;-63
2022/01/09 11:12:16;;;;;;;13.20;6.23;;;4.70;99.90;;;;;;5058390;28;20998;-63
2022/01/09 11:14:44;;;;;;;16.10;6.60;;;4.70;99.90;;;;;;5058917;28;20835;-62
2022/01/09 11:17:12;;;;;;;12.73;6.50;;;4.60;99.90;;;;;;5059170;28;20993;-63
2022/01/09 11:19:41;;;;;;;21.27;7.20;;;4.60;99.90;;;;;;5059796;28;20463;-62
2022/01/09 11:22:10;;;;;;;15.53;6.27;;;4.60;99.90;;;;;;5058629;28;20504;-63
2022/01/09 11:25:03;;;;;;;10.57;6.10;;;4.60;99.90;;;;;;5058561;28;20462;-63
2022/01/09 11:27:56;;;;;;;9.93;5.83;;;4.70;99.90;;;;;;5059440;28;20560;-63
2022/01/09 11:30:39;;;;;;;9.63;6.03;;;4.70;99.90;;;;;;5059245;28;20462;-63
2022/01/09 11:33:28;;;;;;;11.77;7.20;;;4.70;99.90;;;;;;5048752;28;20593;-60
2022/01/09 11:36:04;;;;;;;15.63;6.20;;;4.60;99.90;;;;;;5043868;28;20474;-61
2022/01/09 11:38:45;;;;;;;13.80;7.10;;;4.50;99.90;;;;;;5039343;28;20463;-60
2022/01/09 11:41:17;;;;;;;18.90;7.27;;;4.50;99.90;;;;;;5040675;28;20479;-61
2022/01/09 11:43:56;;;;;;;10.47;7.00;;;4.50;99.90;;;;;;5049961;28;20732;-60
2022/01/09 11:46:24;;;;;;;10.87;6.27;;;4.40;99.90;;;;;;5056269;28;20481;-61
2022/01/09 11:49:07;;;;;;;14.13;6.50;;;4.40;99.90;;;;;;5057558;28;20560;-59
2022/01/09 11:51:36;;;;;;;19.60;7.73;;;4.50;99.90;;;;;;5055774;28;20789;-61
2022/01/09 11:54:16;;;;;;;14.13;8.30;;;4.40;99.90;;;;;;5056230;28;20474;-60
2022/01/09 11:57:06;;;;;;;12.70;6.97;;;4.50;99.90;;;;;;5057403;28;20912;-61
2022/01/09 11:59:47;;;;;;;16.10;6.80;;;4.40;99.90;;;;;;5058650;28;20466;-58
2022/01/09 12:02:34;;;;;;;16.47;6.87;;;4.50;99.90;;;;;;5056195;28;20732;-61
2022/01/09 12:05:06;;;;;;;12.90;6.47;;;4.50;99.90;;;;;;5057105;28;20462;-57
2022/01/09 12:08:08;;;;;;;13.70;7.10;;;4.50;99.90;;;;;;5056637;28;20490;-60
2022/01/09 12:10:40;;;;;;;13.87;7.10;;;4.60;99.90;;;;;;5058210;28;20464;-59
2022/01/09 12:13:22;;;;;;;14.97;6.00;;;4.60;99.90;;;;;;5037331;28;20483;-57
2022/01/09 12:15:49;;;;;;;10.10;7.30;;;4.60;99.90;;;;;;5054713;28;20527;-60
2022/01/09 12:18:41;;;;;;;8.27;6.00;;;4.60;99.90;;;;;;5058029;28;20458;-59
2022/01/09 12:21:33;;;;;;;14.37;5.50;;;4.80;99.90;;;;;;5056617;28;20478;-55
2022/01/09 12:24:29;;;;;;;13.70;7.80;;;4.90;99.90;;;;;;5057982;28;20499;-58
2022/01/09 12:26:58;;;;;;;15.40;6.23;;;4.90;99.90;;;;;;5036524;28;20441;-59
2022/01/09 12:29:46;;;;;;;17.97;12.70;;;4.90;99.90;;;;;;5054698;28;20958;-60
2022/01/09 12:32:38;;;;;;;12.93;7.00;;;5.00;99.90;;;;;;5058330;28;20462;-56
2022/01/09 12:35:21;;;;;;;18.10;6.27;;;5.10;99.90;;;;;;5057114;28;20461;-59
2022/01/09 12:37:50;;;;;;;19.77;12.30;;;5.10;99.90;;;;;;5057886;28;20875;-61
2022/01/09 12:40:18;;;;;;;16.20;6.80;;;5.00;99.90;;;;;;5058319;28;20508;-59
2022/01/09 12:42:50;;;;;;;10.93;5.90;;;5.00;99.90;;;;;;5057960;28;20462;-58
2022/01/09 12:45:25;;;;;;;16.30;6.70;;;5.00;99.90;;;;;;5057276;28;20460;-60
2022/01/09 12:47:54;;;;;;;15.20;6.63;;;5.00;99.90;;;;;;5037942;28;20490;-55
2022/01/09 12:50:26;;;;;;;12.70;6.50;;;5.00;99.90;;;;;;5054531;28;20470;-56
2022/01/09 12:53:11;;;;;;;15.33;8.10;;;4.90;99.90;;;;;;5057318;28;20773;-55
2022/01/09 12:55:56;;;;;;;15.80;6.90;;;4.90;99.90;;;;;;5057367;28;20516;-60
2022/01/09 12:58:26;;;;;;;14.90;7.40;;;4.90;99.90;;;;;;5037765;28;20514;-58
2022/01/09 13:00:54;;;;;;;13.63;6.60;;;4.80;99.90;;;;;;5054706;28;20462;-54
2022/01/09 13:03:23;;;;;;;10.37;6.13;;;4.80;99.90;;;;;;5040213;28;20471;-60